Tilly, Arkansas
Current Conditions -  °F | °C
As of 8:55 PM on Monday 22 Dec 2014 (Local Time) from KCCA Reporting Station
Haze Haze  
Wind Chill: 52°   Ceiling: 4700
Heat Index: 52°   Visibility: 3mi
Dew Point: 52°   Wind: 0mph
Humidity: 100%   Direction: NA
Pressure: 29.65"   Gusts: NA
Location:  35.72°N, 92.84°W
Report Text: KCCA 230255Z AUTO 00000KT 3SM BR BKN047 11/11 A2965 RMK AO2
Loading
Personal Weather Stations






























Interactive Weather Map New forecast layout! Learn more

10-Day Weather Forecast

Advertisements
Track Severe Weather on mobile